createdAt,value
2019-02-11T00:12:24.985Z,51.7
2019-02-11T00:27:31.814Z,50.9
2019-02-11T00:42:51.551Z,51.6
2019-02-11T00:58:04.720Z,52.7
2019-02-11T01:13:17.879Z,56.6
2019-02-11T01:28:30.947Z,59.9
2019-02-11T01:43:43.896Z,63.5
2019-02-11T01:58:56.747Z,66.7
2019-02-11T02:14:09.674Z,75.9
2019-02-11T02:29:21.942Z,81
2019-02-11T02:44:27.660Z,82.6
2019-02-11T02:59:46.528Z,84
2019-02-11T03:14:58.685Z,84.8
2019-02-11T03:30:10.587Z,86.7
2019-02-11T03:45:23.523Z,88.4
2019-02-11T04:00:34.372Z,88.8
2019-02-11T04:15:46.151Z,89.2
2019-02-11T04:30:57.876Z,90.5
2019-02-11T04:46:09.704Z,88
2019-02-11T05:01:16.685Z,85.2
2019-02-11T05:16:33.686Z,86.9
2019-02-11T05:31:45.614Z,84.9
2019-02-11T05:46:57.655Z,83.7
2019-02-11T06:02:09.694Z,82.1
2019-02-11T06:17:21.757Z,82.7
2019-02-11T06:32:33.834Z,86
2019-02-11T06:47:46.154Z,85.9
2019-02-11T07:02:57.994Z,86.3
2019-02-11T07:18:06.340Z,88.1
2019-02-11T07:33:22.298Z,86.6
2019-02-11T07:48:34.059Z,87.5
2019-02-11T08:03:46.129Z,85.2
2019-02-11T08:18:49.024Z,82.8
2019-02-11T08:34:10.682Z,80.5
2019-02-11T08:49:22.993Z,77.4
2019-02-11T09:04:36.599Z,74.7
2019-02-11T09:19:47.818Z,72.2
2019-02-11T09:34:57.995Z,71.3
2019-02-11T09:50:13.062Z,67.9
2019-02-11T10:05:26.170Z,65.7
2019-02-11T10:20:38.581Z,63.2
2019-02-11T10:35:42.843Z,58.4
2019-02-11T10:51:04.111Z,59
2019-02-11T11:06:17.041Z,57.8
2019-02-11T11:21:29.918Z,57.4
2019-02-11T11:36:42.833Z,55.5
2019-02-11T11:51:54.357Z,55.7
2019-02-11T12:07:08.829Z,55.9
2019-02-11T12:22:22.005Z,61.7
2019-02-11T12:37:34.633Z,63.1
2019-02-11T12:52:39.302Z,58
2019-02-11T13:08:01.174Z,52.2
2019-02-11T13:23:13.956Z,48.5
2019-02-11T13:38:27.011Z,54.4
2019-02-11T13:53:44.311Z,48.8
2019-02-11T14:08:51.568Z,48.9
2019-02-11T14:24:06.683Z,46.3
2019-02-11T14:39:19.974Z,41
2019-02-11T14:54:33.374Z,41.8
2019-02-11T15:09:37.170Z,42.7
2019-02-11T15:24:59.431Z,45
2019-02-11T15:40:12.392Z,46.6
2019-02-11T15:55:25.137Z,49.6
2019-02-11T16:10:37.863Z,50.2
2019-02-11T16:25:48.426Z,49.4
2019-02-11T16:41:03.149Z,51.5
2019-02-11T16:56:15.626Z,56.6
2019-02-11T17:11:28.584Z,60
2019-02-11T17:26:31.458Z,64.3
2019-02-11T17:41:52.216Z,67.9
2019-02-11T17:57:04.219Z,71.6
2019-02-11T18:12:16.198Z,71.5
2019-02-11T18:27:28.184Z,71.7
2019-02-11T18:42:39.222Z,70.1
2019-02-11T18:57:52.088Z,69.2
2019-02-11T19:13:04.027Z,69.8
2019-02-11T19:28:15.917Z,68.7
2019-02-11T19:43:20.708Z,67.3
2019-02-11T19:58:40.071Z,63.8
2019-02-11T20:13:51.690Z,62.5
2019-02-11T20:29:03.605Z,62.1
2019-02-11T20:44:15.449Z,62.8
2019-02-11T20:59:27.302Z,62.4
2019-02-11T21:14:38.932Z,60.6
2019-02-11T21:29:50.672Z,60.4
2019-02-11T21:45:02.302Z,60.5
2019-02-11T22:00:08.114Z,60.8
2019-02-11T22:15:25.552Z,63.2
2019-02-11T22:30:37.117Z,65.5
2019-02-11T22:45:48.675Z,62.4
2019-02-11T23:01:00.307Z,62.8
2019-02-11T23:16:11.653Z,61.2
2019-02-11T23:31:23.135Z,59.6
2019-02-11T23:46:34.743Z,56.5
